Lemoore Naval Air Station (Reeves Field) Airport
KNLC : now visible

Airfield :











YOU CAN JOIN US ON...

 
LOGIN :

Register | Disclaimer

   EN    FR    IT 

 









Legend :    VFR   Marginal VFR   IFR   Intensive IFR   Very Intensive IFR
Visi :
Ceiling :
>= 8 km
>= 3000ft
5 to 8 km
1000 to 3000 ft
1500m to 5 km
500 to 1000 ft
800 to 1500m
200 to 500 ft
< 800m
< 200 ft
Symbols :   Thunderstorms  Fog  Heavy snow  Heavy precipitations  Wind > 20 kt







- Airport Elevation : 232 ft


KNLC - Lemoore Naval Air Station (Reeves Field)

CURRENT METAR :
  • 252056Z 21008KT 10SM BKN210 OVC240 24/M02 A3008 RMK AO2 SLP186 RH/17 T02441017 58016 $

EXPIRED METARs :
  • 251956Z VRB06KT 10SM BKN210 OVC240 23/07 A3011 RMK AO2 SLP195 RH/35 T02280072 $
  • 251856Z 18008KT 10SM BKN210 BKN250 22/07 A3013 RMK AO2 SLP201 RH/42 T02170067 $

TAF TAF KNLC
Valid from the 25 at 15:00 until the 26 at 15:00 UTC


2515/2615 VRB06KT 9999 BKN190 BKN250 QNH3004INS
FM252000 18007KT 9999 BKN190 OVC230 QNH2998INS
TEMPO 2520/2601 VRB06KT SCT210 T24/2523Z T09/2613Z FS30067
KZOA FIR / North America



MET'MAP, your aeronautical weather chart ! - Copyright ORBIFLY December 2007 - Disclaimer

ORBIFLY MET'MAP TEAM :

Programming & Development : Alexandra Zaïnal
Concept & Development : Baudouin d'Aumeries
Co-Development & Prog : Marc-Olivier Méhu
Technical & hardware support : Manuel Goepfert

Contact : metmap@orbifly.com




SOURCES & CREDITS :

   NOAA       Earth
Advisory